Euskara    
Meteorología y climatología de Navarra
Datos de la estación - Meteo Navarra

Estación de Urbasa GN

Altitud 886 m.


Datos desde el 08/04/2021 hasta el 09/04/2021 en horario solar
Los datos son PROVISIONALES

Anterior Página 1 de 1 Siguiente Descargar: Formato para Excel 2000 o superior   Formato csv   Formato para OpenOffice Calc
Fecha Temperatura Humedad relativa Radiación global Insolación Precipitación Vel. viento 10 m Vel. viento 10 m Dir. viento 10 m
°C % W/m² s l/m² m/s km/h °
08/04/2021 0:00 -0.7 72 0.0 0 0.0 2.0 7.2 116
08/04/2021 0:10 0.7 65 0.0 0 0.0 2.2 7.8 128
08/04/2021 0:20 2.7 55 0.0 0 0.0 3.0 10.9 149
08/04/2021 0:30 3.7 51 0.0 0 0.0 3.2 11.6 149
08/04/2021 0:40 3.8 54 0.0 0 0.0 4.2 15.3 150
08/04/2021 0:50 3.7 59 0.0 0 0.0 4.4 15.9 153
08/04/2021 1:00 3.5 64 0.0 0 0.0 3.9 14.0 159
08/04/2021 1:10 3.4 67 0.0 0 0.0 4.0 14.4 155
08/04/2021 1:20 3.3 71 0.0 0 0.0 4.4 15.9 156
08/04/2021 1:30 3.2 74 0.0 0 0.0 4.3 15.3 150
08/04/2021 1:40 3.1 77 0.0 0 0.0 3.9 14.2 154
08/04/2021 1:50 3.1 79 0.0 0 0.0 3.9 13.9 151
08/04/2021 2:00 2.9 82 0.0 0 0.0 3.6 13.1 148
08/04/2021 2:10 2.9 84 0.0 0 0.0 3.5 12.4 152
08/04/2021 2:20 2.9 85 0.0 0 0.0 3.7 13.5 152
08/04/2021 2:30 3.0 86 0.0 0 0.0 4.6 16.4 158
08/04/2021 2:40 3.2 87 0.0 0 0.0 4.3 15.6 157
08/04/2021 2:50 3.1 87 0.0 0 0.0 4.9 17.8 163
08/04/2021 3:00 3.1 87 0.0 0 0.0 4.6 16.5 159
08/04/2021 3:10 3.2 88 0.0 0 0.0 5.3 19.1 155
08/04/2021 3:20 3.3 88 0.0 0 0.0 4.4 15.7 153
08/04/2021 3:30 3.2 89 0.0 0 0.0 4.5 16.3 154
08/04/2021 3:40 3.4 89 0.0 0 0.0 5.1 18.2 161
08/04/2021 3:50 3.4 90 0.0 0 0.0 4.0 14.3 160
08/04/2021 4:00 3.3 90 0.0 0 0.0 4.2 15.3 155
08/04/2021 4:10 3.2 91 0.0 0 0.0 4.5 16.1 160
08/04/2021 4:20 3.2 92 0.0 0 0.0 4.5 16.3 154
08/04/2021 4:30 3.2 92 0.0 0 0.0 4.8 17.4 156
08/04/2021 4:40 3.0 92 0.0 0 0.0 4.3 15.5 152
08/04/2021 4:50 3.0 93 0.0 0 0.0 5.4 19.3 155
08/04/2021 5:00 2.8 94 0.0 0 0.0 4.6 16.6 155
08/04/2021 5:10 2.7 94 0.0 0 0.0 4.3 15.3 145
08/04/2021 5:20 2.5 95 0.0 0 0.0 5.1 18.2 150
08/04/2021 5:30 2.5 96 0.0 0 0.0 4.3 15.3 148
08/04/2021 5:40 2.4 96 0.0 0 0.0 3.8 13.5 157
08/04/2021 5:50 2.4 97 0.0 0 0.0 4.3 15.3 148
08/04/2021 6:00 2.3 97 0.0 0 0.0 3.5 12.4 153
08/04/2021 6:10 2.3 97 0.0 0 0.0 3.6 13.0 146
08/04/2021 6:20 2.4 97 0.0 0 0.0 3.9 14.1 152
08/04/2021 6:30 2.5 96 0.8 0 0.0 3.8 13.8 148
08/04/2021 6:40 2.5 96 14.7 0 0.0 3.4 12.2 152
08/04/2021 6:50 2.5 96 20.1 0 0.0 4.1 14.8 152
08/04/2021 7:00 2.7 95 22.0 0 0.0 3.7 13.3 152
08/04/2021 7:10 2.8 94 34.3 0 0.0 3.5 12.7 140
08/04/2021 7:20 2.8 94 43.8 0 0.0 3.8 13.6 146
08/04/2021 7:30 2.9 94 50.9 0 0.0 4.2 15.2 148
08/04/2021 7:40 2.9 93 55.5 0 0.0 3.9 13.9 153
08/04/2021 7:50 3.0 93 76.7 0 0.0 4.0 14.4 151
08/04/2021 8:00 3.1 93 82.4 0 0.0 3.7 13.3 146
08/04/2021 8:10 3.1 92 88.1 0 0.0 4.2 15.0 149
08/04/2021 8:20 3.2 92 94.1 0 0.0 3.4 12.3 144
08/04/2021 8:30 3.3 92 102.7 0 0.0 3.9 14.0 147
08/04/2021 8:40 3.3 92 100.6 0 0.0 3.2 11.5 143
08/04/2021 8:50 3.4 92 108.9 0 0.0 3.8 13.8 148
08/04/2021 9:00 3.5 92 110.9 0 0.0 3.9 14.0 148
08/04/2021 9:10 3.6 92 119.5 0 0.0 2.9 10.4 149
08/04/2021 9:20 3.8 92 131.9 0 0.0 2.9 10.5 139
08/04/2021 9:30 3.9 92 133.8 0 0.0 3.2 11.6 145
08/04/2021 9:40 4.0 91 146.0 0 0.0 2.6 9.2 159
08/04/2021 9:50 4.1 91 162.2 0 0.0 3.0 10.9 162
08/04/2021 10:00 4.4 91 177.3 0 0.0 2.9 10.4 156
08/04/2021 10:10 4.5 90 200.1 0 0.0 3.2 11.7 151
08/04/2021 10:20 4.8 89 244.0 4 0.0 3.8 13.5 151
08/04/2021 10:30 5.3 88 261.8 0 0.0 3.5 12.5 140
08/04/2021 10:40 5.6 86 273.9 0 0.0 3.5 12.7 144
08/04/2021 10:50 6.1 84 282.9 0 0.0 3.0 10.7 132
08/04/2021 11:00 6.3 83 268.6 0 0.0 4.0 14.2 136
08/04/2021 11:10 6.4 82 348.8 68 0.0 3.9 14.0 144
08/04/2021 11:20 6.8 81 385.6 130 0.0 3.7 13.2 145
08/04/2021 11:30 7.4 80 688.2 512 0.0 3.9 14.1 149
08/04/2021 11:40 7.7 77 513.6 356 0.0 4.2 14.9 138
08/04/2021 11:50 7.9 76 491.4 308 0.0 4.5 16.0 133
08/04/2021 12:00 8.3 75 755.9 524 0.0 4.6 16.5 139
08/04/2021 12:10 8.8 73 737.4 522 0.0 4.4 15.9 133
08/04/2021 12:20 9.1 71 724.0 544 0.0 4.5 16.3 154
08/04/2021 12:30 9.4 72 767.5 570 0.0 3.5 12.6 165
08/04/2021 12:40 10.0 69 822.0 590 0.0 4.3 15.3 161
08/04/2021 12:50 9.7 70 694.1 590 0.0 3.9 14.0 141
08/04/2021 13:00 10.1 69 779.1 600 0.0 4.3 15.5 148
08/04/2021 13:10 10.1 68 744.3 600 0.0 4.5 16.3 158
08/04/2021 13:20 10.7 66 647.8 600 0.0 3.0 10.8 172
08/04/2021 13:30 10.5 66 635.7 600 0.0 4.7 16.9 157
08/04/2021 13:40 10.8 66 625.2 600 0.0 4.0 14.2 154
08/04/2021 13:50 10.9 64 623.2 600 0.0 4.0 14.3 159
08/04/2021 14:00 11.2 65 814.0 600 0.0 4.1 14.8 143
08/04/2021 14:10 11.4 64 605.9 600 0.0 4.6 16.6 160
08/04/2021 14:20 11.3 63 484.5 600 0.0 3.2 11.6 160
08/04/2021 14:30 11.4 63 545.1 600 0.0 3.9 14.2 146
08/04/2021 14:40 11.6 62 726.7 600 0.0 4.0 14.4 146
08/04/2021 14:50 11.8 62 586.3 600 0.0 4.1 14.7 150
08/04/2021 15:00 12.1 60 753.1 600 0.0 3.9 14.0 165
08/04/2021 15:10 12.2 60 646.4 600 0.0 3.9 14.0 161
08/04/2021 15:20 12.6 59 562.7 564 0.0 3.4 12.2 148
08/04/2021 15:30 12.5 59 510.0 600 0.0 3.4 12.3 155
08/04/2021 15:40 12.1 59 484.9 600 0.0 4.0 14.4 152
08/04/2021 15:50 12.6 59 519.2 600 0.0 3.0 10.8 151
08/04/2021 16:00 12.6 60 439.6 548 0.0 3.3 12.0 137
08/04/2021 16:10 12.7 58 437.2 600 0.0 3.4 12.2 160
08/04/2021 16:20 12.6 59 359.3 598 0.0 3.5 12.5 153
08/04/2021 16:30 12.7 59 329.4 600 0.0 3.2 11.4 150
08/04/2021 16:40 12.7 60 364.0 600 0.0 3.2 11.5 135
08/04/2021 16:50 12.8 59 323.9 600 0.0 3.6 12.9 148
08/04/2021 17:00 12.5 60 221.5 418 0.0 3.0 10.7 143
08/04/2021 17:10 12.5 60 202.8 592 0.0 3.2 11.3 171
08/04/2021 17:20 12.2 61 184.5 600 0.0 3.5 12.7 164
08/04/2021 17:30 12.0 62 118.6 108 0.0 3.9 13.9 155
08/04/2021 17:40 11.7 63 102.3 152 0.0 3.3 11.8 154
08/04/2021 17:50 11.6 64 68.9 18 0.0 3.3 12.0 150
08/04/2021 18:00 11.5 64 42.2 0 0.0 3.3 11.9 154
08/04/2021 18:10 11.4 65 37.1 2 0.0 2.7 9.8 160
08/04/2021 18:20 11.1 66 26.9 22 0.0 2.6 9.2 147
08/04/2021 18:30 11.1 66 18.6 0 0.0 1.9 6.7 144
08/04/2021 18:40 11.1 67 5.0 0 0.0 1.9 6.9 131
08/04/2021 18:50 10.9 67 0.0 0 0.0 1.7 6.2 139
08/04/2021 19:00 10.8 68 0.0 0 0.0 1.7 6.2 135
08/04/2021 19:10 10.6 69 0.0 0 0.0 2.0 7.2 129
08/04/2021 19:20 10.6 68 0.0 0 0.0 2.2 7.9 133
08/04/2021 19:30 10.8 67 0.0 0 0.0 2.4 8.5 142
08/04/2021 19:40 10.7 68 0.0 0 0.0 2.1 7.6 159
08/04/2021 19:50 10.8 68 0.0 0 0.0 2.2 7.8 131
08/04/2021 20:00 10.9 68 0.0 0 0.0 2.6 9.4 160
08/04/2021 20:10 10.8 68 0.0 0 0.0 3.1 11.3 166
08/04/2021 20:20 10.6 71 0.0 0 0.0 4.0 14.5 158
08/04/2021 20:30 10.4 71 0.0 0 0.0 2.8 10.1 142
08/04/2021 20:40 10.4 72 0.0 0 0.0 3.3 11.9 141
08/04/2021 20:50 10.2 72 0.0 0 0.0 2.9 10.4 150
08/04/2021 21:00 10.3 72 0.0 0 0.0 3.2 11.4 154
08/04/2021 21:10 10.2 71 0.0 0 0.0 3.1 11.3 162
08/04/2021 21:20 10.2 71 0.0 0 0.0 3.7 13.4 163
08/04/2021 21:30 10.1 71 0.0 0 0.0 3.6 12.8 167
08/04/2021 21:40 10.2 70 0.0 0 0.0 3.8 13.6 167
08/04/2021 21:50 10.1 70 0.0 0 0.0 3.6 12.9 159
08/04/2021 22:00 9.9 70 0.0 0 0.0 3.5 12.6 170
08/04/2021 22:10 9.7 71 0.0 0 0.0 3.2 11.4 165
08/04/2021 22:20 9.6 72 0.0 0 0.0 3.3 11.8 167
08/04/2021 22:30 9.4 76 0.0 0 0.0 3.1 11.3 177
08/04/2021 22:40 8.6 83 0.0 0 0.2 2.3 8.3 165
08/04/2021 22:50 8.2 87 0.0 0 0.0 1.6 5.7 180
08/04/2021 23:00 8.0 88 0.0 0 0.2 1.5 5.5 126
08/04/2021 23:10 7.9 87 0.0 0 0.0 2.7 9.9 152
08/04/2021 23:20 7.9 87 0.0 0 0.0 2.6 9.4 155
08/04/2021 23:30 7.8 86 0.0 0 0.0 2.5 9.0 151
08/04/2021 23:40 7.7 86 0.0 0 0.0 2.2 8.0 133
08/04/2021 23:50 7.5 86 0.0 0 0.0 2.6 9.3 137
Anterior Página 1 de 1 Siguiente

NOTA: Tipo de datos según el color:
   - Valores diarios o 10 minutos correctos
   - Valores diarios calculados a partir de un número de datos 10 minutos menor que 144 y mayor que 120, o de un número de datos semihorarios menor que 48 y mayor que 40 (caso de las estaciones de INTIA Y Ministerio)
   - Valores diez minutos estimados


Contacto        Enlaces        Aviso legal